Time;durP1;ratioP1;P1;durP2;ratioP2;P2;SDS_P1;SDS_P2;PMS_P1;PMS_P2;Temp;Humidity;BMP_temperature;BMP_pressure;BME280_temperature;BME280_humidity;BME280_pressure;Samples;Min_cycle;Max_cycle;Signal;HPM_P1;HPM_P2
2021/01/22 01:11:53;;;;;;;1.98;1.00;;;7.50;63.20;;;;;;6223529;23;20035;-80
2021/01/22 04:24:40;;;;;;;2.70;0.70;;;7.70;68.80;;;;;;6238617;22;20035;-82
2021/01/22 04:35:08;;;;;;;0.70;0.70;;;7.60;70.20;;;;;;6179843;23;20015;-82
2021/01/22 04:41:57;;;;;;;1.02;0.63;;;7.50;70.90;;;;;;6019102;23;20032;-82
2021/01/22 04:44:42;;;;;;;2.35;0.80;;;7.50;71.40;;;;;;6071898;23;20038;-82
2021/01/22 04:47:31;;;;;;;1.80;0.73;;;7.40;71.90;;;;;;6104068;23;20016;-81
2021/01/22 04:50:00;;;;;;;3.35;1.55;;;7.40;72.20;;;;;;6174903;23;20294;-79
2021/01/22 04:52:27;;;;;;;2.50;0.40;;;7.40;72.60;;;;;;6207179;23;20364;-83
2021/01/22 04:54:55;;;;;;;2.10;0.70;;;7.40;72.90;;;;;;6201210;23;20015;-81
2021/01/22 04:57:20;;;;;;;1.42;0.68;;;7.50;73.20;;;;;;6225708;23;20000;-82
2021/01/22 04:59:51;;;;;;;0.70;0.57;;;7.50;73.60;;;;;;6192001;23;20047;-85
2021/01/22 05:02:17;;;;;;;1.77;0.70;;;7.50;73.70;;;;;;6191669;23;20012;-83
2021/01/22 05:04:43;;;;;;;1.67;0.93;;;7.60;74.50;;;;;;6218519;23;20008;-80
2021/01/22 05:07:12;;;;;;;0.65;0.60;;;7.60;73.90;;;;;;6191268;23;20001;-81
2021/01/22 05:09:39;;;;;;;0.85;0.60;;;7.60;74.00;;;;;;6217861;23;20008;-80
2021/01/22 05:12:07;;;;;;;1.35;0.63;;;7.60;74.10;;;;;;6218409;23;20001;-81
2021/01/22 05:14:36;;;;;;;0.50;0.50;;;7.50;74.20;;;;;;6218328;23;20016;-81
2021/01/22 05:17:04;;;;;;;2.75;0.57;;;7.50;74.40;;;;;;6218568;23;20011;-80
2021/01/22 05:19:31;;;;;;;1.67;0.70;;;7.50;74.60;;;;;;6217324;23;20011;-80
2021/01/22 05:21:57;;;;;;;0.40;0.40;;;7.50;74.80;;;;;;6218535;23;20017;-80
2021/01/22 05:24:25;;;;;;;3.70;0.80;;;7.40;74.80;;;;;;6217892;23;20008;-84
2021/01/22 05:27:12;;;;;;;2.92;0.77;;;7.40;75.10;;;;;;6218365;23;20004;-83
2021/01/22 05:29:39;;;;;;;1.58;0.55;;;7.40;75.30;;;;;;6218697;23;20055;-82
2021/01/22 05:32:26;;;;;;;0.70;0.60;;;7.30;75.30;;;;;;6218802;23;20000;-81
2021/01/22 05:34:52;;;;;;;2.15;0.82;;;7.30;75.60;;;;;;6204165;23;20344;-81
2021/01/22 05:37:19;;;;;;;0.55;0.47;;;7.30;75.90;;;;;;6192125;23;20004;-81
2021/01/22 05:39:45;;;;;;;1.23;0.50;;;7.30;75.90;;;;;;6219360;23;20027;-80
2021/01/22 05:42:12;;;;;;;0.50;0.50;;;7.30;76.00;;;;;;6218602;23;20001;-79
2021/01/22 05:44:52;;;;;;;0.85;0.43;;;7.30;76.00;;;;;;6218957;23;20020;-82
2021/01/22 05:47:18;;;;;;;0.75;0.75;;;7.30;76.20;;;;;;6218540;23;20042;-82
2021/01/22 05:49:55;;;;;;;0.82;0.45;;;7.20;76.30;;;;;;6219726;23;20004;-82
2021/01/22 05:52:22;;;;;;;3.58;0.70;;;7.20;76.60;;;;;;6219376;23;20007;-80
2021/01/22 05:54:49;;;;;;;1.58;0.52;;;7.10;76.60;;;;;;6220817;23;19996;-83
2021/01/22 05:57:14;;;;;;;1.10;0.57;;;7.10;77.00;;;;;;6192953;23;20000;-81
2021/01/22 05:59:40;;;;;;;2.47;0.50;;;7.00;78.30;;;;;;6192154;23;20000;-82
2021/01/22 06:02:29;;;;;;;1.58;0.50;;;6.90;77.40;;;;;;6192054;23;20063;-86
2021/01/22 06:05:14;;;;;;;1.27;0.60;;;6.90;77.60;;;;;;6219526;23;20000;-82
2021/01/22 06:07:42;;;;;;;0.35;0.30;;;6.80;77.80;;;;;;6190597;23;20026;-82
2021/01/22 06:10:24;;;;;;;0.52;0.50;;;6.80;78.20;;;;;;6192048;23;20028;-82
2021/01/22 06:12:54;;;;;;;1.23;0.57;;;6.70;78.40;;;;;;6218201;23;20396;-80
2021/01/22 06:15:22;;;;;;;3.30;0.68;;;6.70;78.40;;;;;;6190863;23;20017;-82
2021/01/22 06:17:52;;;;;;;1.15;0.47;;;6.70;78.40;;;;;;6191190;23;20058;-79
2021/01/22 06:20:20;;;;;;;0.75;0.52;;;6.70;79.00;;;;;;6192673;23;20016;-80
2021/01/22 06:22:58;;;;;;;0.73;0.50;;;6.60;78.70;;;;;;6218330;23;20347;-82
2021/01/22 06:25:26;;;;;;;1.60;1.50;;;6.70;78.90;;;;;;6219492;23;20008;-80
2021/01/22 06:27:53;;;;;;;0.75;0.63;;;6.60;78.90;;;;;;6218090;23;20001;-81
2021/01/22 06:30:19;;;;;;;1.20;0.63;;;6.60;79.00;;;;;;6217999;23;20011;-80
2021/01/22 06:32:46;;;;;;;1.65;0.73;;;6.50;79.10;;;;;;6192695;23;20008;-78
2021/01/22 06:35:14;;;;;;;1.77;0.90;;;6.50;79.40;;;;;;6221065;23;20004;-79
2021/01/22 06:37:41;;;;;;;3.25;1.05;;;6.50;79.50;;;;;;6195059;23;20011;-79
2021/01/22 06:40:07;;;;;;;1.38;0.70;;;6.40;79.60;;;;;;6213256;23;20008;-86
2021/01/22 06:42:39;;;;;;;1.17;0.65;;;6.40;79.70;;;;;;6229555;22;20309;-80
2021/01/22 06:45:05;;;;;;;1.17;0.80;;;6.40;80.10;;;;;;6225526;23;20079;-79
2021/01/22 06:47:31;;;;;;;2.13;0.60;;;6.40;79.80;;;;;;6202576;23;20011;-80
2021/01/22 06:49:57;;;;;;;0.65;0.63;;;6.40;79.60;;;;;;6227618;23;20001;-80
2021/01/22 06:52:29;;;;;;;1.95;0.70;;;6.40;79.20;;;;;;6199857;23;20444;-79
2021/01/22 06:54:58;;;;;;;0.65;0.65;;;6.40;79.30;;;;;;6200103;23;20036;-82
2021/01/22 06:57:24;;;;;;;1.60;0.70;;;6.40;79.30;;;;;;6209099;23;20061;-82
2021/01/22 06:59:50;;;;;;;1.45;0.60;;;6.30;79.40;;;;;;6236171;23;20000;-81
2021/01/22 07:02:38;;;;;;;1.35;0.57;;;6.30;79.50;;;;;;6208963;23;20015;-81
2021/01/22 07:05:34;;;;;;;1.85;1.02;;;6.30;79.50;;;;;;6236000;23;20005;-83
2021/01/22 07:07:59;;;;;;;3.67;0.80;;;6.30;79.60;;;;;;6229573;22;19989;-84
2021/01/22 07:11:02;;;;;;;1.05;0.60;;;6.30;79.60;;;;;;6224835;23;20005;-80
2021/01/22 07:13:35;;;;;;;1.30;0.60;;;6.30;79.50;;;;;;6224336;23;20108;-81
2021/01/22 07:16:04;;;;;;;2.47;0.90;;;6.30;79.60;;;;;;6194073;23;20096;-78
2021/01/22 07:18:33;;;;;;;0.80;0.80;;;6.40;79.70;;;;;;6222233;23;20079;-78
2021/01/22 07:21:17;;;;;;;2.40;1.00;;;6.50;79.40;;;;;;6223615;23;20011;-78
2021/01/22 07:23:44;;;;;;;5.70;1.20;;;6.50;78.80;;;;;;6197638;23;20150;-78
2021/01/22 07:26:10;;;;;;;0.60;0.60;;;6.60;78.70;;;;;;6224678;23;20365;-79
2021/01/22 07:28:49;;;;;;;2.58;0.90;;;6.60;78.30;;;;;;6198742;23;20001;-80
2021/01/22 07:31:52;;;;;;;1.58;0.65;;;6.70;78.00;;;;;;6222202;23;20000;-79
2021/01/22 07:34:37;;;;;;;1.65;0.70;;;6.70;77.80;;;;;;6194723;23;20068;-81
2021/01/22 07:37:22;;;;;;;1.98;1.00;;;6.80;77.60;;;;;;6217755;23;20000;-80
2021/01/22 07:39:51;;;;;;;3.55;1.20;;;6.80;77.40;;;;;;6219088;23;20433;-80
2021/01/22 07:42:19;;;;;;;3.55;1.20;;;6.80;77.30;;;;;;6192250;23;20004;-81
2021/01/22 07:44:47;;;;;;;1.80;0.73;;;6.80;77.30;;;;;;6192357;23;20008;-80
2021/01/22 07:47:33;;;;;;;1.50;0.77;;;6.70;77.40;;;;;;6218877;23;20087;-80
2021/01/22 07:50:08;;;;;;;5.28;1.10;;;6.70;77.50;;;;;;6218690;23;20016;-80
2021/01/22 07:52:45;;;;;;;1.58;0.80;;;6.60;77.80;;;;;;6191791;23;20001;-79
2021/01/22 07:55:16;;;;;;;0.98;0.55;;;6.60;78.00;;;;;;6192773;23;20024;-82
2021/01/22 07:57:42;;;;;;;0.65;0.57;;;6.60;78.10;;;;;;6219039;23;19997;-81
2021/01/22 08:00:11;;;;;;;0.63;0.50;;;6.60;78.30;;;;;;6192287;23;20001;-82
2021/01/22 08:02:37;;;;;;;2.55;0.77;;;6.60;78.30;;;;;;6219569;23;19997;-82
2021/01/22 08:05:10;;;;;;;1.65;0.70;;;6.60;78.40;;;;;;6193283;23;20011;-84
2021/01/22 08:07:40;;;;;;;2.38;0.65;;;6.60;78.50;;;;;;6193154;23;20381;-83
2021/01/22 08:10:11;;;;;;;1.83;0.70;;;6.70;78.40;;;;;;6223560;23;20000;-82
2021/01/22 08:12:38;;;;;;;1.30;0.75;;;6.80;78.30;;;;;;6204356;23;20001;-80
2021/01/22 08:15:18;;;;;;;1.33;0.65;;;6.90;77.90;;;;;;6198476;23;20011;-80
2021/01/22 08:17:47;;;;;;;2.08;1.20;;;7.10;77.60;;;;;;6218615;23;20024;-80
2021/01/22 08:20:14;;;;;;;4.40;1.83;;;7.20;77.40;;;;;;6218352;23;20001;-82
2021/01/22 08:22:41;;;;;;;2.80;1.25;;;7.40;77.90;;;;;;6190936;23;20413;-82
2021/01/22 08:25:08;;;;;;;4.78;1.00;;;7.60;75.90;;;;;;6219494;23;19996;-81
2021/01/22 08:27:34;;;;;;;4.10;1.20;;;7.70;74.30;;;;;;6221998;23;19997;-86
2021/01/22 08:30:07;;;;;;;3.17;1.02;;;7.80;73.90;;;;;;6194182;23;20015;-86
2021/01/22 08:32:36;;;;;;;2.83;0.88;;;7.90;73.40;;;;;;6191840;23;20011;-83
2021/01/22 08:35:27;;;;;;;2.00;0.70;;;7.90;73.00;;;;;;6219960;23;20066;-84
2021/01/22 08:38:16;;;;;;;2.65;0.80;;;8.00;72.60;;;;;;6193586;23;20008;-83
2021/01/22 08:40:50;;;;;;;2.40;0.88;;;8.00;72.30;;;;;;6194511;23;20402;-84
2021/01/22 08:43:17;;;;;;;1.70;0.93;;;8.00;72.20;;;;;;6193252;23;20016;-83
2021/01/22 08:46:25;;;;;;;3.60;0.90;;;8.10;71.90;;;;;;6192308;23;20009;-81
2021/01/22 08:48:52;;;;;;;2.42;1.65;;;8.10;71.30;;;;;;6195469;23;20000;-80
2021/01/22 08:51:29;;;;;;;4.80;0.80;;;8.20;70.80;;;;;;6219732;23;20011;-83
2021/01/22 08:53:56;;;;;;;3.13;0.80;;;8.40;70.40;;;;;;6218515;23;20005;-81
2021/01/22 08:56:22;;;;;;;2.03;0.98;;;8.50;70.10;;;;;;6218896;23;19996;-80
2021/01/22 08:59:04;;;;;;;1.10;0.80;;;8.70;69.60;;;;;;6218751;23;20011;-81
2021/01/22 09:01:56;;;;;;;3.30;0.70;;;8.90;68.90;;;;;;6218643;23;20068;-80
2021/01/22 09:04:23;;;;;;;4.68;0.90;;;9.10;67.60;;;;;;6191829;23;20528;-81
2021/01/22 09:06:56;;;;;;;2.22;0.63;;;9.30;66.30;;;;;;6218702;23;19996;-80
2021/01/22 09:09:42;;;;;;;2.88;0.90;;;9.40;65.40;;;;;;6192726;23;20020;-79
2021/01/22 09:12:24;;;;;;;2.72;0.80;;;9.60;64.20;;;;;;6219450;23;20007;-80
2021/01/22 09:15:18;;;;;;;4.18;0.70;;;9.70;64.10;;;;;;6218426;23;19997;-79
2021/01/22 09:17:49;;;;;;;2.15;0.60;;;10.10;63.10;;;;;;6172923;23;20010;-80
2021/01/22 09:20:21;;;;;;;6.97;1.10;;;10.30;61.30;;;;;;6191882;23;20051;-81
2021/01/22 09:22:49;;;;;;;3.20;1.05;;;10.50;60.60;;;;;;6218919;23;20028;-80
2021/01/22 09:25:20;;;;;;;3.05;0.45;;;10.60;59.60;;;;;;6191982;23;20001;-82
2021/01/22 09:27:47;;;;;;;1.35;0.77;;;10.70;59.20;;;;;;6219683;23;20005;-79
2021/01/22 09:30:15;;;;;;;3.88;0.70;;;10.70;58.60;;;;;;6219069;23;20007;-80
2021/01/22 09:32:48;;;;;;;4.80;0.75;;;10.70;58.60;;;;;;6217518;23;20185;-82
2021/01/22 09:35:15;;;;;;;5.38;0.80;;;10.90;58.70;;;;;;6218636;23;20007;-80
2021/01/22 09:37:41;;;;;;;1.70;0.82;;;11.00;57.90;;;;;;6219111;23;20000;-80
2021/01/22 09:40:07;;;;;;;3.90;0.85;;;11.20;58.30;;;;;;6218759;23;19999;-80
2021/01/22 09:42:34;;;;;;;2.05;0.65;;;11.30;56.80;;;;;;6219480;23;20001;-81
2021/01/22 09:45:03;;;;;;;0.90;0.45;;;11.30;56.40;;;;;;6193561;23;20001;-82
2021/01/22 09:47:29;;;;;;;1.42;0.73;;;11.30;56.40;;;;;;6194780;23;20512;-81
2021/01/22 09:49:54;;;;;;;2.78;0.80;;;11.20;56.40;;;;;;6221977;23;20069;-81
2021/01/22 09:52:22;;;;;;;14.00;1.40;;;11.10;56.30;;;;;;6194080;23;20087;-81
2021/01/22 09:54:48;;;;;;;4.75;0.73;;;10.90;56.60;;;;;;6221325;23;20001;-83
2021/01/22 09:57:14;;;;;;;2.17;0.68;;;10.80;57.40;;;;;;6220073;23;20005;-81
2021/01/22 09:59:40;;;;;;;4.15;0.90;;;10.80;57.70;;;;;;6223084;23;20437;-82
2021/01/22 10:02:06;;;;;;;7.85;1.13;;;10.70;57.90;;;;;;6221171;23;20084;-83
2021/01/22 10:04:35;;;;;;;5.85;1.23;;;10.80;57.50;;;;;;6193463;23;20005;-82
2021/01/22 10:07:00;;;;;;;5.10;0.75;;;10.80;57.90;;;;;;6220215;23;20016;-81
2021/01/22 10:09:26;;;;;;;6.28;1.02;;;11.00;57.60;;;;;;6193256;23;20070;-82
2021/01/22 10:11:52;;;;;;;4.88;0.85;;;11.30;56.50;;;;;;6220079;23;20287;-83
2021/01/22 10:14:37;;;;;;;5.45;1.33;;;11.40;55.70;;;;;;6194842;23;20064;-82
2021/01/22 10:17:33;;;;;;;6.43;1.10;;;11.60;55.60;;;;;;6223812;23;20016;-84
2021/01/22 10:20:02;;;;;;;1.48;0.90;;;11.70;55.20;;;;;;6200456;23;20451;-85
2021/01/22 10:22:27;;;;;;;4.47;1.00;;;11.80;54.70;;;;;;6231141;23;20000;-84
2021/01/22 10:24:58;;;;;;;1.35;0.63;;;11.80;54.50;;;;;;6223860;23;20008;-85
2021/01/22 10:27:24;;;;;;;2.05;0.88;;;12.00;54.50;;;;;;6210593;23;20052;-83
2021/01/22 10:29:49;;;;;;;3.00;0.93;;;12.00;54.10;;;;;;6205563;23;20475;-83
2021/01/22 10:32:15;;;;;;;1.02;0.80;;;12.00;54.20;;;;;;6192055;23;20425;-84
2021/01/22 10:34:41;;;;;;;4.15;0.93;;;12.00;54.20;;;;;;6194273;23;20087;-85
2021/01/22 10:37:06;;;;;;;2.75;1.02;;;11.90;54.40;;;;;;6194265;23;20436;-84
2021/01/22 10:39:32;;;;;;;1.83;0.50;;;11.90;54.60;;;;;;6221484;23;20420;-84
2021/01/22 10:41:58;;;;;;;2.90;0.95;;;11.90;54.90;;;;;;6192444;23;20096;-84
2021/01/22 10:44:24;;;;;;;1.63;0.80;;;11.90;54.90;;;;;;6219181;23;20000;-85
2021/01/22 10:46:49;;;;;;;4.75;1.10;;;11.90;54.40;;;;;;6192279;23;20512;-83
2021/01/22 10:49:15;;;;;;;3.03;0.93;;;11.80;54.90;;;;;;6218518;23;19992;-83
2021/01/22 10:51:41;;;;;;;1.95;0.95;;;11.90;54.90;;;;;;6224495;23;20112;-86
2021/01/22 10:54:06;;;;;;;1.85;1.10;;;11.90;54.80;;;;;;6207413;23;20016;-83
2021/01/22 10:56:32;;;;;;;2.08;0.80;;;12.00;55.30;;;;;;6224351;23;20509;-85
2021/01/22 10:58:57;;;;;;;3.63;1.08;;;12.10;54.70;;;;;;6199438;23;20293;-85
2021/01/22 11:01:23;;;;;;;2.28;1.30;;;12.20;54.60;;;;;;6200351;23;20456;-85
2021/01/22 11:03:49;;;;;;;3.25;1.05;;;12.20;54.50;;;;;;6225111;23;20313;-85
2021/01/22 11:06:16;;;;;;;4.90;1.17;;;12.30;54.30;;;;;;6198407;23;20008;-86
2021/01/22 11:08:41;;;;;;;2.95;0.90;;;12.30;54.10;;;;;;6227490;23;19997;-86
2021/01/22 11:11:08;;;;;;;1.30;0.90;;;12.30;54.10;;;;;;6228339;23;20046;-86
2021/01/22 11:13:39;;;;;;;2.83;0.95;;;12.30;54.20;;;;;;6229149;23;20047;-86
2021/01/22 11:16:05;;;;;;;7.65;1.23;;;12.40;54.20;;;;;;6200362;23;20009;-85
2021/01/22 11:18:30;;;;;;;2.53;0.60;;;12.40;53.70;;;;;;6229778;23;20101;-86
2021/01/22 11:20:56;;;;;;;1.75;0.55;;;12.40;53.50;;;;;;6210341;23;20080;-85
2021/01/22 11:23:22;;;;;;;1.75;0.77;;;12.40;53.40;;;;;;6227244;23;20004;-85
2021/01/22 11:25:50;;;;;;;1.48;0.60;;;12.40;53.30;;;;;;6222364;23;20004;-84
2021/01/22 11:28:15;;;;;;;2.85;0.63;;;12.40;53.60;;;;;;6196226;23;20009;-85
2021/01/22 11:30:41;;;;;;;1.65;0.80;;;12.40;53.40;;;;;;6199768;23;20000;-85
2021/01/22 11:33:07;;;;;;;2.63;0.77;;;12.50;53.20;;;;;;6207204;23;20035;-82
2021/01/22 11:35:35;;;;;;;1.23;0.60;;;12.50;52.90;;;;;;6236808;23;20077;-84
2021/01/22 11:38:01;;;;;;;2.20;0.88;;;12.50;53.20;;;;;;6204564;23;20321;-83
2021/01/22 11:40:26;;;;;;;4.03;0.90;;;12.40;53.20;;;;;;6199490;23;20298;-83
2021/01/22 11:42:52;;;;;;;3.88;1.08;;;12.40;53.30;;;;;;6229274;23;20001;-83
2021/01/22 11:45:18;;;;;;;2.35;0.80;;;12.30;53.60;;;;;;6234052;23;20011;-83
2021/01/22 11:47:44;;;;;;;1.52;0.73;;;12.20;53.90;;;;;;6232336;23;20080;-82
2021/01/22 11:50:10;;;;;;;1.27;0.80;;;12.20;54.20;;;;;;6201726;23;20091;-83
2021/01/22 11:52:36;;;;;;;6.95;0.98;;;12.10;54.50;;;;;;6225391;23;20187;-83
2021/01/22 11:55:02;;;;;;;0.93;0.52;;;12.10;54.30;;;;;;6199312;23;20469;-83
2021/01/22 11:57:34;;;;;;;0.90;0.68;;;12.10;54.50;;;;;;6224502;23;19997;-83
2021/01/22 11:59:59;;;;;;;1.05;0.90;;;12.20;54.50;;;;;;6196554;23;20015;-82
2021/01/22 12:02:25;;;;;;;1.75;0.60;;;12.30;54.20;;;;;;6225484;23;20001;-84
2021/01/22 12:04:51;;;;;;;0.88;0.60;;;12.40;54.20;;;;;;6225556;23;20024;-84
2021/01/22 12:07:16;;;;;;;4.38;0.93;;;12.40;54.30;;;;;;6199153;23;20001;-83
2021/01/22 12:09:42;;;;;;;2.60;0.63;;;12.40;54.30;;;;;;6200212;23;20000;-84
2021/01/22 12:12:09;;;;;;;3.85;0.73;;;12.50;53.80;;;;;;6199396;23;20007;-84
2021/01/22 12:14:35;;;;;;;0.95;0.73;;;12.60;53.90;;;;;;6200031;23;20079;-81
2021/01/22 12:17:01;;;;;;;1.73;1.02;;;12.70;53.90;;;;;;6200188;23;20444;-82
2021/01/22 12:19:26;;;;;;;2.03;0.77;;;12.90;52.90;;;;;;6228774;23;20000;-82
2021/01/22 12:21:52;;;;;;;0.95;0.65;;;13.10;53.10;;;;;;6227259;23;20009;-83
2021/01/22 12:24:18;;;;;;;4.10;0.60;;;13.20;52.70;;;;;;6195774;23;20047;-83
2021/01/22 12:26:45;;;;;;;2.60;0.63;;;13.30;52.50;;;;;;6197349;23;20031;-84
2021/01/22 12:29:10;;;;;;;1.17;1.08;;;13.30;52.40;;;;;;6196902;23;20058;-84
2021/01/22 12:31:36;;;;;;;7.18;1.10;;;13.30;52.10;;;;;;6197087;23;20000;-84
2021/01/22 12:34:02;;;;;;;0.90;0.50;;;13.30;52.20;;;;;;6196523;23;20028;-84
2021/01/22 12:36:27;;;;;;;2.33;1.00;;;13.20;52.60;;;;;;6222808;23;20312;-84
2021/01/22 12:38:53;;;;;;;7.15;1.50;;;13.20;52.40;;;;;;6195420;23;20054;-83
2021/01/22 12:41:19;;;;;;;4.32;2.38;;;13.20;52.00;;;;;;6197435;23;20020;-84
2021/01/22 12:43:44;;;;;;;3.53;1.35;;;13.30;52.40;;;;;;6200024;23;20012;-86
2021/01/22 12:47:10;;;;;;;2.33;1.33;;;13.50;52.10;;;;;;6235976;23;20000;-87
2021/01/22 12:49:40;;;;;;;2.78;1.23;;;13.80;51.00;;;;;;6237917;23;20021;-84
2021/01/22 12:52:06;;;;;;;2.55;1.30;;;14.30;50.60;;;;;;6214512;23;20024;-89
2021/01/22 12:54:36;;;;;;;1.60;1.27;;;14.50;48.80;;;;;;6214219;23;20067;-88
2021/01/22 12:57:05;;;;;;;5.68;2.30;;;14.90;49.80;;;;;;6214200;23;20009;-86
2021/01/22 12:59:30;;;;;;;6.55;1.38;;;15.40;47.80;;;;;;6209828;23;20009;-83
2021/01/22 13:01:56;;;;;;;3.22;2.13;;;16.20;44.30;;;;;;6197208;23;20028;-83
2021/01/22 13:04:22;;;;;;;2.65;0.80;;;16.50;44.90;;;;;;6195725;23;20012;-83
2021/01/22 13:06:48;;;;;;;4.70;1.17;;;17.00;42.70;;;;;;6194799;23;20004;-84
2021/01/22 13:09:16;;;;;;;2.17;0.88;;;17.10;41.90;;;;;;6193239;23;20024;-83
2021/01/22 13:11:41;;;;;;;2.97;0.75;;;17.00;42.50;;;;;;6222740;23;20007;-83
2021/01/22 13:14:07;;;;;;;3.25;0.90;;;17.10;56.00;;;;;;6202093;23;20060;-84
2021/01/22 13:16:33;;;;;;;5.95;1.10;;;17.20;48.80;;;;;;6235297;23;20012;-83
2021/01/22 13:19:01;;;;;;;0.75;0.55;;;17.30;44.20;;;;;;6201283;23;20195;-85
2021/01/22 13:21:27;;;;;;;1.20;0.68;;;16.90;60.20;;;;;;6207171;23;20031;-85
2021/01/22 13:23:53;;;;;;;3.45;1.00;;;15.80;43.80;;;;;;6212325;23;20016;-83
2021/01/22 13:26:18;;;;;;;3.92;0.95;;;14.80;45.10;;;;;;6208851;23;20028;-82
2021/01/22 13:28:44;;;;;;;0.70;0.70;;;;;;;;;;6205685;23;20009;-83
2021/01/22 13:31:10;;;;;;;1.02;0.57;;;14.10;47.40;;;;;;6221284;23;20060;-86
2021/01/22 13:33:36;;;;;;;3.50;0.75;;;13.70;48.80;;;;;;6193797;23;20009;-83
2021/01/22 13:36:01;;;;;;;1.23;0.85;;;13.40;49.30;;;;;;6193865;23;20024;-84
2021/01/22 13:38:28;;;;;;;3.40;0.50;;;12.90;50.50;;;;;;6194115;23;20448;-83
2021/01/22 13:40:54;;;;;;;3.13;1.17;;;12.70;51.30;;;;;;6195127;23;20005;-83
2021/01/22 13:43:20;;;;;;;1.48;0.63;;;12.50;52.10;;;;;;6194499;23;20087;-83
2021/01/22 13:45:45;;;;;;;1.13;0.70;;;12.30;52.80;;;;;;6194656;23;20418;-83
2021/01/22 13:48:11;;;;;;;0.93;0.50;;;12.20;53.00;;;;;;6194168;23;20269;-85
2021/01/22 13:50:37;;;;;;;0.82;0.60;;;12.10;53.30;;;;;;6194012;23;20088;-84
2021/01/22 13:53:03;;;;;;;1.92;0.88;;;12.00;53.80;;;;;;6192850;23;20009;-85
2021/01/22 13:55:29;;;;;;;0.95;0.40;;;12.00;54.10;;;;;;6192481;23;20008;-84
2021/01/22 13:57:54;;;;;;;0.70;0.50;;;11.90;54.30;;;;;;6192583;23;20005;-86
2021/01/22 14:00:21;;;;;;;0.90;0.50;;;11.90;54.60;;;;;;6222343;23;20007;-84
2021/01/22 14:02:47;;;;;;;1.48;0.85;;;12.00;54.80;;;;;;6194436;23;20004;-84
2021/01/22 14:05:13;;;;;;;2.83;0.85;;;12.00;55.00;;;;;;6220522;23;20079;-84
2021/01/22 14:07:39;;;;;;;1.05;0.88;;;12.00;55.10;;;;;;6194223;23;20000;-84
2021/01/22 14:10:05;;;;;;;0.73;0.73;;;12.00;56.10;;;;;;6193616;23;20321;-84
2021/01/22 14:12:31;;;;;;;1.45;1.00;;;12.00;55.50;;;;;;6194249;23;20011;-84
2021/01/22 14:14:57;;;;;;;1.00;0.80;;;11.90;55.60;;;;;;6222692;23;20008;-84
2021/01/22 14:17:23;;;;;;;3.55;1.13;;;11.90;55.70;;;;;;6221707;23;19996;-84
2021/01/22 14:19:48;;;;;;;0.95;0.75;;;11.90;55.70;;;;;;6193899;23;20011;-84
2021/01/22 14:22:14;;;;;;;3.83;0.80;;;11.90;55.70;;;;;;6194262;23;20005;-85
2021/01/22 14:24:40;;;;;;;3.70;0.70;;;11.90;55.80;;;;;;6218655;23;20091;-84
2021/01/22 14:27:05;;;;;;;3.42;1.13;;;11.80;55.90;;;;;;6227042;23;20009;-84
2021/01/22 14:29:31;;;;;;;1.40;0.82;;;11.70;55.90;;;;;;6228182;23;20001;-89
2021/01/22 14:31:57;;;;;;;2.78;0.82;;;11.70;56.00;;;;;;6200491;23;20000;-89
2021/01/22 14:34:23;;;;;;;3.58;0.95;;;11.60;56.00;;;;;;6226997;23;20053;-89
2021/01/22 14:36:48;;;;;;;2.80;0.73;;;11.50;56.10;;;;;;6227033;23;20024;-89
2021/01/22 14:39:14;;;;;;;5.68;0.80;;;11.50;56.40;;;;;;6201724;23;20010;-90
2021/01/22 14:41:40;;;;;;;1.90;0.80;;;11.40;56.70;;;;;;6201496;23;20012;-90
2021/01/22 14:44:06;;;;;;;1.70;0.80;;;11.30;57.20;;;;;;6226621;23;20060;-90
2021/01/22 14:46:32;;;;;;;0.68;0.60;;;11.20;57.50;;;;;;6230163;23;20123;-89
2021/01/22 14:48:58;;;;;;;2.70;0.93;;;11.20;57.90;;;;;;6203884;23;20000;-89
2021/01/22 14:51:23;;;;;;;1.85;0.77;;;11.10;58.40;;;;;;6226506;23;19996;-92
2021/01/22 14:53:49;;;;;;;1.17;0.63;;;10.90;58.60;;;;;;6224864;23;20008;-91
2021/01/22 14:56:15;;;;;;;1.25;0.60;;;10.90;58.90;;;;;;6222194;23;20038;-91
2021/01/22 14:58:41;;;;;;;1.02;0.90;;;10.80;59.30;;;;;;6205548;23;20008;-91
2021/01/22 15:01:06;;;;;;;4.38;1.00;;;10.70;59.60;;;;;;6229997;23;20004;-90
2021/01/22 15:03:32;;;;;;;2.10;1.08;;;10.70;59.90;;;;;;6201918;23;20038;-90
2021/01/22 15:05:58;;;;;;;1.80;1.00;;;10.70;61.70;;;;;;6227985;23;20012;-90
2021/01/22 15:08:24;;;;;;;2.78;0.90;;;10.80;63.70;;;;;;6198194;23;20045;-91
2021/01/22 15:10:51;;;;;;;0.70;0.70;;;11.10;65.60;;;;;;6225962;23;20076;-91
2021/01/22 15:13:17;;;;;;;2.17;1.27;;;11.00;64.90;;;;;;6199870;23;20035;-90
2021/01/22 15:15:42;;;;;;;1.45;1.10;;;10.70;60.40;;;;;;6227804;23;20024;-90
2021/01/22 15:18:08;;;;;;;2.22;0.85;;;10.60;60.70;;;;;;6227202;23;20020;-91
2021/01/22 15:20:34;;;;;;;3.58;1.02;;;10.50;60.90;;;;;;6222181;23;20056;-90
2021/01/22 15:23:00;;;;;;;4.28;0.80;;;;;;;;;;6220598;23;20035;-89
2021/01/22 15:25:25;;;;;;;3.70;1.40;;;10.40;60.80;;;;;;6223082;23;20011;-89
2021/01/22 15:27:51;;;;;;;2.10;1.13;;;10.30;61.80;;;;;;6199140;23;20005;-90
2021/01/22 15:30:17;;;;;;;2.50;1.10;;;10.20;62.00;;;;;;6226985;23;20001;-89
2021/01/22 15:32:43;;;;;;;1.70;0.85;;;10.10;62.30;;;;;;6225241;23;20123;-91
2021/01/22 15:35:11;;;;;;;3.30;1.13;;;10.00;62.70;;;;;;6223837;23;20020;-90
2021/01/22 15:37:36;;;;;;;0.82;0.70;;;9.90;63.00;;;;;;6195779;23;20001;-92
2021/01/22 15:40:03;;;;;;;1.80;0.88;;;9.80;63.20;;;;;;6195066;23;20022;-90
2021/01/22 15:42:29;;;;;;;2.45;0.88;;;9.80;63.60;;;;;;6197265;23;20436;-90
2021/01/22 15:44:55;;;;;;;3.08;0.80;;;9.80;63.90;;;;;;6196137;23;20028;-89
2021/01/22 15:47:20;;;;;;;1.67;0.85;;;9.70;64.40;;;;;;6198474;23;20001;-88
2021/01/22 15:49:48;;;;;;;1.33;0.80;;;9.70;64.50;;;;;;6201251;23;20316;-89
2021/01/22 15:52:14;;;;;;;2.65;1.00;;;9.60;64.60;;;;;;6201076;23;20001;-87
2021/01/22 15:54:40;;;;;;;1.10;0.70;;;9.60;64.80;;;;;;6229093;23;20026;-86
2021/01/22 15:57:06;;;;;;;1.92;0.80;;;9.50;64.90;;;;;;6228438;23;20004;-86
2021/01/22 15:59:32;;;;;;;2.35;1.10;;;9.50;65.20;;;;;;6229737;23;20387;-89
2021/01/22 16:01:57;;;;;;;2.08;1.23;;;9.50;65.30;;;;;;6229260;23;20026;-87
2021/01/22 16:04:23;;;;;;;1.55;0.90;;;9.50;65.30;;;;;;6229532;23;20008;-87
2021/01/22 16:06:49;;;;;;;2.55;1.15;;;9.50;65.10;;;;;;6230536;23;19996;-87
2021/01/22 16:09:14;;;;;;;2.42;0.85;;;9.40;65.20;;;;;;6229478;23;20000;-86
2021/01/22 16:11:41;;;;;;;2.70;0.85;;;9.40;65.40;;;;;;6221837;23;19997;-86
2021/01/22 16:14:07;;;;;;;4.75;1.00;;;9.40;65.50;;;;;;6224787;23;20463;-87
2021/01/22 16:16:32;;;;;;;5.97;1.38;;;9.30;65.40;;;;;;6231445;23;20004;-87
2021/01/22 16:18:58;;;;;;;5.10;1.17;;;9.30;65.60;;;;;;6239120;23;19992;-86
2021/01/22 16:21:24;;;;;;;2.33;0.80;;;9.30;65.60;;;;;;6232278;23;20011;-88
2021/01/22 16:23:50;;;;;;;8.32;1.20;;;9.20;65.50;;;;;;6230266;23;20000;-86
2021/01/22 16:26:15;;;;;;;5.53;1.25;;;9.20;65.70;;;;;;6229496;23;20039;-87
2021/01/22 16:28:41;;;;;;;2.05;0.70;;;9.20;65.70;;;;;;6228696;23;20080;-89
2021/01/22 16:31:07;;;;;;;3.83;0.75;;;9.20;65.80;;;;;;6229841;23;20007;-87
2021/01/22 16:33:33;;;;;;;4.18;1.13;;;9.20;65.90;;;;;;6229626;23;20001;-87
2021/01/22 16:35:59;;;;;;;1.90;1.08;;;9.10;66.10;;;;;;6225792;23;20004;-87
2021/01/22 16:38:24;;;;;;;2.25;1.00;;;9.10;66.20;;;;;;6228290;23;20043;-86
2021/01/22 16:40:50;;;;;;;1.77;0.80;;;9.10;66.20;;;;;;6229119;23;20297;-88
2021/01/22 16:43:16;;;;;;;3.13;0.90;;;9.00;66.10;;;;;;6201894;23;20023;-88
2021/01/22 16:45:41;;;;;;;3.47;1.00;;;9.00;66.40;;;;;;6230361;23;20078;-86
2021/01/22 16:48:07;;;;;;;4.03;1.40;;;8.90;66.40;;;;;;6229765;23;20011;-86
2021/01/22 16:50:33;;;;;;;2.78;0.90;;;8.90;66.60;;;;;;6197888;23;20001;-88
2021/01/22 16:53:02;;;;;;;4.18;1.20;;;8.80;66.70;;;;;;6223289;23;20026;-88
2021/01/22 16:55:28;;;;;;;2.03;1.15;;;8.70;66.90;;;;;;6196730;23;20060;-90
2021/01/22 16:57:54;;;;;;;2.90;1.05;;;8.60;67.40;;;;;;6228867;23;20008;-88
2021/01/22 17:00:22;;;;;;;3.25;1.10;;;8.50;67.50;;;;;;6202421;23;20004;-88
2021/01/22 17:02:48;;;;;;;2.13;1.52;;;8.50;67.80;;;;;;6200046;23;20000;-88
2021/01/22 17:05:14;;;;;;;2.03;1.23;;;8.40;67.90;;;;;;6202638;23;20008;-89
2021/01/22 17:07:40;;;;;;;4.40;1.40;;;8.40;68.40;;;;;;6202688;23;20008;-87
2021/01/22 17:10:07;;;;;;;2.47;1.25;;;8.30;68.30;;;;;;6203536;23;20009;-88
2021/01/22 17:12:34;;;;;;;3.83;1.40;;;8.30;68.40;;;;;;6212921;23;19988;-90
2021/01/22 17:15:03;;;;;;;3.88;1.23;;;8.30;68.70;;;;;;6236337;23;20012;-88
2021/01/22 17:17:34;;;;;;;2.90;1.70;;;8.20;68.60;;;;;;6202919;23;20005;-92
2021/01/22 17:20:03;;;;;;;3.30;1.38;;;8.10;68.90;;;;;;6228958;23;20003;-90
2021/01/22 17:22:28;;;;;;;1.85;1.55;;;8.10;68.80;;;;;;6202674;23;20030;-90
2021/01/22 17:24:54;;;;;;;3.08;1.15;;;8.00;69.60;;;;;;6202942;23;20009;-89
2021/01/22 17:27:23;;;;;;;2.10;1.17;;;8.00;69.20;;;;;;6230391;23;20013;-90
2021/01/22 17:29:51;;;;;;;3.40;1.50;;;8.00;69.40;;;;;;6203336;23;20004;-88
2021/01/22 17:32:17;;;;;;;2.17;1.40;;;7.90;69.60;;;;;;6230576;23;20005;-91
2021/01/22 17:34:47;;;;;;;3.25;1.77;;;7.80;70.00;;;;;;6201784;23;20005;-90